Time,TemperatureF,DewpointF,PressureIn,WindDirection,WindDirectionDegrees,WindSpeedMPH,WindSpeedGustMPH,Humidity,HourlyPrecipIn,Conditions,Clouds,dailyrainin,SoftwareType,DateUTC
2013-01-06 00:05:00,19.1,15.0,30.25,ESE,102,0.0,0.0,84,0.00,,,0.00,weatherlink.com 1.10,2013-01-06 07:05:00,
2013-01-06 00:21:00,18.9,15.0,30.24,ESE,102,0.0,0.0,85,0.00,,,0.00,weatherlink.com 1.10,2013-01-06 07:21:00,
2013-01-06 00:36:00,18.8,16.0,30.24,ESE,102,0.0,0.0,87,0.00,,,0.00,weatherlink.com 1.10,2013-01-06 07:36:00,
2013-01-06 00:51:00,19.5,16.0,30.24,ESE,102,0.0,1.0,87,0.00,,,0.00,weatherlink.com 1.10,2013-01-06 07:51:00,
2013-01-06 01:06:00,20.1,16.0,30.24,SW,234,0.0,2.0,84,0.00,,,0.00,weatherlink.com 1.10,2013-01-06 08:06:00,
2013-01-06 01:21:00,20.4,17.0,30.24,SW,234,0.0,0.0,85,0.00,,,0.00,weatherlink.com 1.10,2013-01-06 08:21:00,
2013-01-06 01:36:00,20.8,16.0,30.24,SW,234,0.0,0.0,83,0.00,,,0.00,weatherlink.com 1.10,2013-01-06 08:36:00,
2013-01-06 01:51:00,20.8,17.0,30.24,SW,234,0.0,0.0,84,0.00,,,0.00,weatherlink.com 1.10,2013-01-06 08:51:00,
2013-01-06 02:06:00,20.7,16.0,30.24,SW,234,0.0,0.0,83,0.00,,,0.00,weatherlink.com 1.10,2013-01-06 09:06:00,
2013-01-06 02:21:00,20.4,16.0,30.24,SW,234,0.0,0.0,83,0.00,,,0.00,weatherlink.com 1.10,2013-01-06 09:21:00,
2013-01-06 02:36:00,20.1,16.0,30.24,SW,234,0.0,0.0,84,0.00,,,0.00,weatherlink.com 1.10,2013-01-06 09:36:00,
2013-01-06 02:51:00,19.7,16.0,30.23,SW,234,0.0,0.0,84,0.00,,,0.00,weatherlink.com 1.10,2013-01-06 09:51:00,
2013-01-06 03:06:00,19.3,16.0,30.23,South,191,0.0,0.0,86,0.00,,,0.00,weatherlink.com 1.10,2013-01-06 10:06:00,
2013-01-06 03:21:00,19.1,16.0,30.23,South,191,0.0,0.0,86,0.00,,,0.00,weatherlink.com 1.10,2013-01-06 10:21:00,
2013-01-06 03:36:00,18.8,16.0,30.22,South,191,0.0,0.0,87,0.00,,,0.00,weatherlink.com 1.10,2013-01-06 10:36:00,
2013-01-06 03:51:00,18.7,16.0,30.22,South,188,0.0,0.0,88,0.00,,,0.00,weatherlink.com 1.10,2013-01-06 10:51:00,
2013-01-06 04:06:00,18.6,15.0,30.21,South,186,0.0,0.0,87,0.00,,,0.00,weatherlink.com 1.10,2013-01-06 11:06:00,
2013-01-06 04:23:00,18.6,16.0,30.20,SSW,203,0.0,0.0,88,0.00,,,0.00,weatherlink.com 1.10,2013-01-06 11:23:00,
2013-01-06 04:36:00,18.7,16.0,30.20,SSW,203,0.0,0.0,88,0.00,,,0.00,weatherlink.com 1.10,2013-01-06 11:36:00,
2013-01-06 04:51:00,18.8,16.0,30.20,SSW,203,0.0,0.0,88,0.00,,,0.00,weatherlink.com 1.10,2013-01-06 11:51:00,
2013-01-06 05:06:00,18.8,16.0,30.19,SSW,203,0.0,1.0,89,0.00,,,0.00,weatherlink.com 1.10,2013-01-06 12:06:00,
2013-01-06 05:21:00,18.8,16.0,30.20,SSW,203,0.0,0.0,89,0.00,,,0.00,weatherlink.com 1.10,2013-01-06 12:21:00,
2013-01-06 05:36:00,18.8,16.0,30.20,South,170,0.0,0.0,88,0.00,,,0.00,weatherlink.com 1.10,2013-01-06 12:36:00,
2013-01-06 05:51:00,18.6,16.0,30.20,South,170,0.0,0.0,89,0.00,,,0.00,weatherlink.com 1.10,2013-01-06 12:51:00,
2013-01-06 06:06:00,18.6,16.0,30.19,South,170,0.0,0.0,89,0.00,,,0.00,weatherlink.com 1.10,2013-01-06 13:06:00,
2013-01-06 06:21:00,18.5,16.0,30.20,South,170,0.0,0.0,88,0.00,,,0.00,weatherlink.com 1.10,2013-01-06 13:21:00,
2013-01-06 06:36:00,18.2,16.0,30.20,South,170,0.0,0.0,89,0.00,,,0.00,weatherlink.com 1.10,2013-01-06 13:36:00,
2013-01-06 06:51:00,18.1,15.0,30.20,South,170,0.0,0.0,89,0.00,,,0.00,weatherlink.com 1.10,2013-01-06 13:51:00,
2013-01-06 07:06:00,18.0,15.0,30.20,South,170,0.0,0.0,89,0.00,,,0.00,weatherlink.com 1.10,2013-01-06 14:06:00,
2013-01-06 07:21:00,17.9,16.0,30.20,South,170,0.0,0.0,90,0.00,,,0.00,weatherlink.com 1.10,2013-01-06 14:21:00,
2013-01-06 07:36:00,18.5,16.0,30.21,WSW,256,0.0,1.0,91,0.00,,,0.00,weatherlink.com 1.10,2013-01-06 14:36:00,
2013-01-06 07:51:00,19.0,16.0,30.20,West,281,0.0,1.0,89,0.00,,,0.00,weatherlink.com 1.10,2013-01-06 14:51:00,
2013-01-06 08:12:00,19.7,17.0,30.20,West,281,0.0,0.0,90,0.00,,,0.00,weatherlink.com 1.10,2013-01-06 15:12:00,
2013-01-06 08:22:00,20.5,18.0,30.19,NNE,26,0.0,1.0,89,0.00,,,0.00,weatherlink.com 1.10,2013-01-06 15:22:00,
2013-01-06 08:37:00,21.3,18.0,30.19,NNE,26,0.0,0.0,88,0.00,,,0.00,weatherlink.com 1.10,2013-01-06 15:37:00,
2013-01-06 08:51:00,22.4,19.0,30.19,NNE,26,0.0,0.0,86,0.00,,,0.00,weatherlink.com 1.10,2013-01-06 15:51:00,
2013-01-06 09:07:00,24.2,21.0,30.19,NNE,26,0.0,0.0,86,0.00,,,0.00,weatherlink.com 1.10,2013-01-06 16:07:00,
2013-01-06 09:22:00,27.1,21.0,30.19,NNE,26,0.0,1.0,79,0.00,,,0.00,weatherlink.com 1.10,2013-01-06 16:22:00,
2013-01-06 09:37:00,29.7,22.0,30.19,NNE,26,0.0,0.0,72,0.00,,,0.00,weatherlink.com 1.10,2013-01-06 16:37:00,
2013-01-06 09:52:00,32.4,22.0,30.18,NNE,26,0.0,0.0,66,0.00,,,0.00,weatherlink.com 1.10,2013-01-06 16:52:00,
2013-01-06 10:08:00,35.4,23.0,30.18,East,94,0.0,1.0,60,0.00,,,0.00,weatherlink.com 1.10,2013-01-06 17:08:00,
2013-01-06 10:23:00,38.2,22.0,30.17,East,94,0.0,2.0,53,0.00,,,0.00,weatherlink.com 1.10,2013-01-06 17:23:00,
2013-01-06 10:38:00,39.9,21.0,30.17,East,96,0.0,1.0,47,0.00,,,0.00,weatherlink.com 1.10,2013-01-06 17:38:00,
2013-01-06 10:52:00,41.5,21.0,30.15,East,90,0.0,1.0,44,0.00,,,0.00,weatherlink.com 1.10,2013-01-06 17:52:00,
2013-01-06 11:08:00,42.5,21.0,30.14,WSW,250,2.0,3.0,43,0.00,,,0.00,weatherlink.com 1.10,2013-01-06 18:08:00,
2013-01-06 11:26:00,43.9,20.0,30.12,NE,38,0.0,2.0,38,0.00,,,0.00,weatherlink.com 1.10,2013-01-06 18:26:00,
2013-01-06 11:38:00,44.3,21.0,30.11,ESE,107,0.0,1.0,39,0.00,,,0.00,weatherlink.com 1.10,2013-01-06 18:38:00,
2013-01-06 11:53:00,45.6,22.0,30.09,ESE,103,0.0,2.0,40,0.00,,,0.00,weatherlink.com 1.10,2013-01-06 18:53:00,
2013-01-06 12:09:00,46.7,22.0,30.07,SW,227,0.0,3.0,38,0.00,,,0.00,weatherlink.com 1.10,2013-01-06 19:09:00,
2013-01-06 12:23:00,47.5,21.0,30.06,West,271,4.0,4.0,35,0.00,,,0.00,weatherlink.com 1.10,2013-01-06 19:23:00,
2013-01-06 12:38:00,48.3,21.0,30.05,West,277,0.0,3.0,34,0.00,,,0.00,weatherlink.com 1.10,2013-01-06 19:38:00,
2013-01-06 12:54:00,50.1,22.0,30.02,North,10,2.0,5.0,33,0.00,,,0.00,weatherlink.com 1.10,2013-01-06 19:54:00,
2013-01-06 13:23:00,54.1,21.0,30.01,West,276,1.0,4.0,28,0.00,,,0.00,weatherlink.com 1.10,2013-01-06 20:23:00,
2013-01-06 13:39:00,56.0,21.0,30.00,SW,230,1.0,5.0,26,0.00,,,0.00,weatherlink.com 1.10,2013-01-06 20:39:00,
2013-01-06 13:53:00,57.1,20.0,29.99,WNW,300,0.0,3.0,24,0.00,,,0.00,weatherlink.com 1.10,2013-01-06 20:53:00,
2013-01-06 14:10:00,57.8,20.0,29.98,NNW,334,1.0,3.0,23,0.00,,,0.00,weatherlink.com 1.10,2013-01-06 21:10:00,
2013-01-06 14:24:00,59.3,21.0,29.96,SE,130,1.0,2.0,23,0.00,,,0.00,weatherlink.com 1.10,2013-01-06 21:24:00,
2013-01-06 14:40:00,61.4,21.0,29.95,SW,236,1.0,4.0,21,0.00,,,0.00,weatherlink.com 1.10,2013-01-06 21:40:00,
2013-01-06 14:54:00,62.5,21.0,29.94,West,274,3.0,5.0,20,0.00,,,0.00,weatherlink.com 1.10,2013-01-06 21:54:00,
2013-01-06 15:10:00,63.1,20.0,29.93,West,265,4.0,4.0,19,0.00,,,0.00,weatherlink.com 1.10,2013-01-06 22:10:00,
2013-01-06 15:25:00,62.1,19.0,29.93,SE,144,3.0,7.0,19,0.00,,,0.00,weatherlink.com 1.10,2013-01-06 22:25:00,
2013-01-06 15:39:00,59.8,17.0,29.93,SE,140,6.0,13.0,19,0.00,,,0.00,weatherlink.com 1.10,2013-01-06 22:39:00,
2013-01-06 15:55:00,57.7,18.0,29.92,ESE,111,5.0,12.0,21,0.00,,,0.00,weatherlink.com 1.10,2013-01-06 22:55:00,
2013-01-06 16:13:00,56.5,18.0,29.91,East,100,3.0,13.0,22,0.00,,,0.00,weatherlink.com 1.10,2013-01-06 23:13:00,
2013-01-06 16:26:00,55.7,17.0,29.91,SE,143,2.0,11.0,22,0.00,,,0.00,weatherlink.com 1.10,2013-01-06 23:26:00,
2013-01-06 16:40:00,54.7,17.0,29.91,ESE,120,7.0,13.0,23,0.00,,,0.00,weatherlink.com 1.10,2013-01-06 23:40:00,
2013-01-06 16:55:00,53.9,18.0,29.90,SE,128,4.0,10.0,24,0.00,,,0.00,weatherlink.com 1.10,2013-01-06 23:55:00,
2013-01-06 17:11:00,52.5,17.0,29.89,SSW,197,4.0,12.0,25,0.00,,,0.00,weatherlink.com 1.10,2013-01-07 00:11:00,
2013-01-06 17:25:00,51.5,17.0,29.89,ESE,105,4.0,9.0,26,0.00,,,0.00,weatherlink.com 1.10,2013-01-07 00:25:00,
2013-01-06 17:40:00,50.3,17.0,29.90,SSE,159,1.0,5.0,27,0.00,,,0.00,weatherlink.com 1.10,2013-01-07 00:40:00,
2013-01-06 17:56:00,48.7,18.0,29.90,SE,135,0.0,1.0,29,0.00,,,0.00,weatherlink.com 1.10,2013-01-07 00:56:00,
2013-01-06 18:11:00,46.2,18.0,29.91,SE,140,0.0,0.0,32,0.00,,,0.00,weatherlink.com 1.10,2013-01-07 01:11:00,
2013-01-06 18:25:00,43.3,18.0,29.91,SE,140,0.0,0.0,37,0.00,,,0.00,weatherlink.com 1.10,2013-01-07 01:25:00,
2013-01-06 18:41:00,40.4,18.0,29.91,SE,142,0.0,0.0,40,0.00,,,0.00,weatherlink.com 1.10,2013-01-07 01:41:00,
2013-01-06 18:56:00,38.4,19.0,29.91,East,98,0.0,0.0,45,0.00,,,0.00,weatherlink.com 1.10,2013-01-07 01:56:00,
2013-01-06 19:10:00,36.4,18.0,29.91,East,98,0.0,0.0,48,0.00,,,0.00,weatherlink.com 1.10,2013-01-07 02:10:00,
2013-01-06 19:31:00,33.7,18.0,29.91,WNW,294,0.0,2.0,53,0.00,,,0.00,weatherlink.com 1.10,2013-01-07 02:31:00,
2013-01-06 19:41:00,32.8,18.0,29.91,WNW,294,0.0,2.0,55,0.00,,,0.00,weatherlink.com 1.10,2013-01-07 02:41:00,
2013-01-06 19:55:00,31.9,18.0,29.92,WNW,296,0.0,0.0,58,0.00,,,0.00,weatherlink.com 1.10,2013-01-07 02:55:00,
2013-01-06 20:11:00,31.2,19.0,29.91,WNW,296,0.0,2.0,61,0.00,,,0.00,weatherlink.com 1.10,2013-01-07 03:11:00,
2013-01-06 20:26:00,31.0,19.0,29.91,NW,310,0.0,1.0,62,0.00,,,0.00,weatherlink.com 1.10,2013-01-07 03:26:00,
2013-01-06 20:42:00,30.8,19.0,29.91,NW,310,0.0,0.0,63,0.00,,,0.00,weatherlink.com 1.10,2013-01-07 03:42:00,
2013-01-06 21:01:00,30.5,20.0,29.91,NW,310,0.0,0.0,64,0.00,,,0.00,weatherlink.com 1.10,2013-01-07 04:01:00,
2013-01-06 21:11:00,30.2,20.0,29.91,NW,310,0.0,0.0,66,0.00,,,0.00,weatherlink.com 1.10,2013-01-07 04:11:00,
2013-01-06 21:27:00,29.9,20.0,29.90,NW,310,0.0,0.0,68,0.00,,,0.00,weatherlink.com 1.10,2013-01-07 04:27:00,
2013-01-06 21:42:00,29.4,20.0,29.90,NW,310,0.0,0.0,68,0.00,,,0.00,weatherlink.com 1.10,2013-01-07 04:42:00,
2013-01-06 21:56:00,29.0,20.0,29.90,NW,310,0.0,0.0,68,0.00,,,0.00,weatherlink.com 1.10,2013-01-07 04:56:00,
2013-01-06 22:12:00,28.7,20.0,29.89,NW,310,0.0,0.0,70,0.00,,,0.00,weatherlink.com 1.10,2013-01-07 05:12:00,
2013-01-06 22:27:00,28.4,20.0,29.89,NW,310,0.0,0.0,71,0.00,,,0.00,weatherlink.com 1.10,2013-01-07 05:27:00,
2013-01-06 22:42:00,28.1,21.0,29.89,NW,310,0.0,0.0,74,0.00,,,0.00,weatherlink.com 1.10,2013-01-07 05:42:00,
2013-01-06 22:56:00,28.0,21.0,29.89,NW,317,0.0,0.0,74,0.00,,,0.00,weatherlink.com 1.10,2013-01-07 05:56:00,
2013-01-06 23:12:00,27.9,21.0,29.88,NW,317,0.0,0.0,74,0.00,,,0.00,weatherlink.com 1.10,2013-01-07 06:12:00,
2013-01-06 23:27:00,27.7,21.0,29.88,NW,317,0.0,0.0,75,0.00,,,0.00,weatherlink.com 1.10,2013-01-07 06:27:00,
2013-01-06 23:41:00,27.6,21.0,29.88,NW,317,0.0,0.0,76,0.00,,,0.00,weatherlink.com 1.10,2013-01-07 06:41:00,
2013-01-06 23:58:00,27.5,21.0,29.89,NW,317,0.0,0.0,77,0.00,,,0.00,weatherlink.com 1.10,2013-01-07 06:58:00,